createdAt,value
2023-01-19T00:00:51.765Z,3.60
2023-01-19T00:03:18.717Z,3.40
2023-01-19T00:05:45.577Z,3.15
2023-01-19T00:08:15.933Z,2.90
2023-01-19T00:10:45.074Z,2.88
2023-01-19T00:13:12.473Z,3.05
2023-01-19T00:15:39.380Z,3.00
2023-01-19T00:18:06.858Z,2.80
2023-01-19T00:20:35.615Z,2.65
2023-01-19T00:23:03.453Z,2.50
2023-01-19T00:25:30.472Z,2.53
2023-01-19T00:27:57.648Z,2.83
2023-01-19T00:30:25.268Z,2.40
2023-01-19T00:32:51.988Z,2.60
2023-01-19T00:35:19.923Z,2.60
2023-01-19T00:37:46.714Z,2.70
2023-01-19T00:40:14.099Z,2.45
2023-01-19T00:42:41.410Z,2.40
2023-01-19T00:45:10.150Z,2.65
2023-01-19T00:47:37.097Z,2.53
2023-01-19T00:50:04.022Z,2.25
2023-01-19T00:52:30.806Z,2.30
2023-01-19T00:54:57.562Z,2.35
2023-01-19T00:57:24.292Z,2.10
2023-01-19T00:59:51.002Z,1.90
2023-01-19T01:02:17.861Z,2.03
2023-01-19T01:04:44.652Z,2.17
2023-01-19T01:07:11.493Z,1.88
2023-01-19T01:09:38.199Z,2.25
2023-01-19T01:12:06.037Z,2.00
2023-01-19T01:14:32.935Z,2.13
2023-01-19T01:17:00.660Z,2.28
2023-01-19T01:19:27.464Z,1.92
2023-01-19T01:21:55.469Z,2.35
2023-01-19T01:24:22.372Z,1.85
2023-01-19T01:26:49.100Z,2.10
2023-01-19T01:29:15.820Z,2.10
2023-01-19T01:31:42.646Z,2.05
2023-01-19T01:34:09.442Z,1.88
2023-01-19T01:36:36.227Z,2.10
2023-01-19T01:39:03.189Z,2.08
2023-01-19T01:41:30.131Z,2.17
2023-01-19T01:44:01.814Z,1.90
2023-01-19T01:46:30.697Z,1.80
2023-01-19T01:49:08.155Z,1.70
2023-01-19T01:51:39.122Z,1.58
2023-01-19T01:54:19.840Z,1.60
2023-01-19T01:56:52.751Z,1.80
2023-01-19T01:59:29.340Z,1.83
2023-01-19T02:04:56.287Z,1.98
2023-01-19T02:11:01.314Z,1.40
2023-01-19T02:13:33.481Z,1.88
2023-01-19T02:16:03.282Z,1.80
2023-01-19T02:18:31.611Z,1.70
2023-01-19T02:21:07.501Z,1.70
2023-01-19T02:23:39.477Z,1.42
2023-01-19T02:26:09.414Z,1.75
2023-01-19T02:28:39.172Z,1.50
2023-01-19T02:33:33.331Z,1.70
2023-01-19T02:36:00.264Z,1.48
2023-01-19T02:38:28.719Z,1.40
2023-01-19T02:41:00.304Z,1.67
2023-01-19T02:43:28.158Z,1.40
2023-01-19T02:45:55.983Z,1.55
2023-01-19T02:48:22.840Z,1.33
2023-01-19T02:50:57.447Z,1.67
2023-01-19T02:53:33.278Z,1.48
2023-01-19T02:56:24.727Z,1.35
2023-01-19T02:59:04.907Z,1.23
2023-01-19T03:02:00.717Z,1.40
2023-01-19T03:04:54.020Z,1.52
2023-01-19T03:07:33.378Z,1.70
2023-01-19T03:10:28.240Z,1.50
2023-01-19T03:13:03.317Z,1.60
2023-01-19T03:15:47.593Z,1.50
2023-01-19T03:18:16.317Z,1.38
2023-01-19T03:20:44.475Z,1.30
2023-01-19T03:23:14.074Z,1.33
2023-01-19T03:25:43.727Z,1.45
2023-01-19T03:30:42.665Z,1.50
2023-01-19T03:33:17.397Z,1.50
2023-01-19T03:35:48.973Z,1.50
2023-01-19T03:38:17.269Z,1.60
2023-01-19T03:40:45.414Z,1.30
2023-01-19T03:43:14.271Z,1.38
2023-01-19T03:45:41.107Z,1.30
2023-01-19T03:48:08.090Z,1.58
2023-01-19T03:50:35.049Z,1.35
2023-01-19T03:53:13.718Z,1.23
2023-01-19T03:55:45.485Z,1.45
2023-01-19T03:58:12.337Z,1.38
2023-01-19T04:00:39.622Z,1.55
2023-01-19T04:03:12.425Z,1.40
2023-01-19T04:05:39.676Z,1.30
2023-01-19T04:08:06.924Z,1.60
2023-01-19T04:10:34.053Z,1.27
2023-01-19T04:13:02.108Z,1.50
2023-01-19T04:15:29.805Z,1.55
2023-01-19T04:18:00.763Z,1.40
2023-01-19T04:20:28.240Z,1.42
2023-01-19T04:22:59.867Z,1.40
2023-01-19T04:25:27.502Z,1.30
2023-01-19T04:27:55.178Z,1.20
2023-01-19T04:30:22.604Z,1.50
2023-01-19T04:32:49.581Z,1.45
2023-01-19T04:35:17.039Z,1.60
2023-01-19T04:37:44.997Z,1.63
2023-01-19T04:40:12.112Z,1.70
2023-01-19T04:42:38.909Z,1.27
2023-01-19T04:45:05.989Z,1.40
2023-01-19T04:47:32.733Z,1.50
2023-01-19T04:49:59.434Z,1.30
2023-01-19T04:52:34.846Z,1.20
2023-01-19T04:55:06.161Z,1.52
2023-01-19T04:57:32.959Z,1.48
2023-01-19T04:59:59.709Z,1.40
2023-01-19T05:02:26.932Z,1.48
2023-01-19T05:04:53.809Z,1.80
2023-01-19T05:07:20.528Z,1.40
2023-01-19T05:09:47.281Z,1.50
2023-01-19T05:12:14.020Z,1.67
2023-01-19T05:14:40.940Z,1.60
2023-01-19T05:17:07.692Z,1.55
2023-01-19T05:19:34.648Z,1.20
2023-01-19T05:22:03.577Z,1.85
2023-01-19T05:24:30.394Z,1.17
2023-01-19T05:26:57.438Z,1.38
2023-01-19T05:29:24.266Z,1.42
2023-01-19T05:31:51.075Z,1.45
2023-01-19T05:34:18.080Z,1.67
2023-01-19T05:36:44.805Z,1.25
2023-01-19T05:39:11.628Z,1.63
2023-01-19T05:41:38.626Z,1.65
2023-01-19T05:44:05.421Z,1.50
2023-01-19T05:46:34.557Z,1.40
2023-01-19T05:49:04.152Z,1.55
2023-01-19T05:51:35.152Z,1.30
2023-01-19T05:54:02.406Z,1.30
2023-01-19T05:56:29.332Z,2.88
2023-01-19T05:58:56.057Z,11.63
2023-01-19T06:01:22.830Z,10.65
2023-01-19T06:03:49.595Z,7.95
2023-01-19T06:06:17.131Z,7.10
2023-01-19T06:08:44.718Z,6.32
2023-01-19T06:11:12.014Z,5.15
2023-01-19T06:13:42.252Z,4.90
2023-01-19T06:16:09.336Z,4.85
2023-01-19T06:18:36.102Z,4.03
2023-01-19T06:21:04.670Z,3.63
2023-01-19T06:23:32.374Z,4.60
2023-01-19T06:25:59.266Z,3.42
2023-01-19T06:28:25.991Z,3.50
2023-01-19T06:30:54.323Z,3.40
2023-01-19T06:33:21.371Z,3.42
2023-01-19T06:38:18.588Z,10.25
2023-01-19T06:40:46.235Z,16.38
2023-01-19T06:43:13.368Z,17.23
2023-01-19T06:45:40.216Z,14.48
2023-01-19T06:48:08.338Z,12.80
2023-01-19T06:50:35.253Z,11.00
2023-01-19T06:53:02.370Z,9.90
2023-01-19T06:55:29.452Z,8.38
2023-01-19T06:57:58.430Z,8.05
2023-01-19T07:00:25.765Z,7.30
2023-01-19T07:02:52.804Z,6.93
2023-01-19T07:05:19.666Z,6.45
2023-01-19T07:07:51.978Z,5.90
2023-01-19T07:10:18.988Z,5.43
2023-01-19T07:12:47.332Z,5.00
2023-01-19T07:15:15.451Z,14.13
2023-01-19T07:17:42.483Z,14.63
2023-01-19T07:20:12.922Z,12.93
2023-01-19T07:22:43.501Z,11.63
2023-01-19T07:25:10.365Z,8.95
2023-01-19T07:27:37.170Z,8.15
2023-01-19T07:30:04.556Z,7.50
2023-01-19T07:32:31.381Z,6.45
2023-01-19T07:34:58.475Z,6.65
2023-01-19T07:37:25.400Z,5.97
2023-01-19T07:39:52.294Z,5.60
2023-01-19T07:42:19.236Z,5.50
2023-01-19T07:44:46.093Z,5.30
2023-01-19T07:47:12.926Z,5.40
2023-01-19T07:49:40.223Z,4.90
2023-01-19T07:52:07.335Z,5.30
2023-01-19T07:54:34.362Z,5.30
2023-01-19T07:57:01.216Z,5.03
2023-01-19T07:59:32.202Z,13.55
2023-01-19T08:01:59.612Z,13.98
2023-01-19T08:04:27.749Z,10.57
2023-01-19T08:06:55.507Z,9.00
2023-01-19T08:09:22.768Z,7.57
2023-01-19T08:11:49.565Z,7.20
2023-01-19T08:14:16.318Z,6.78
2023-01-19T08:16:43.052Z,5.88
2023-01-19T08:19:10.003Z,5.88
2023-01-19T08:21:38.761Z,5.53
2023-01-19T08:24:05.871Z,5.17
2023-01-19T08:26:34.747Z,5.13
2023-01-19T08:29:03.844Z,6.70
2023-01-19T08:31:31.077Z,17.73
2023-01-19T08:33:57.988Z,14.02
2023-01-19T08:36:25.132Z,11.95
2023-01-19T08:38:52.322Z,10.68
2023-01-19T08:41:19.113Z,8.82
2023-01-19T08:43:45.844Z,8.63
2023-01-19T08:46:12.743Z,7.28
2023-01-19T08:48:40.203Z,6.80
2023-01-19T08:51:07.044Z,6.05
2023-01-19T08:53:34.635Z,6.03
2023-01-19T08:56:02.293Z,6.75
2023-01-19T08:58:29.288Z,5.75
2023-01-19T09:00:56.371Z,6.25
2023-01-19T09:03:23.331Z,5.28
2023-01-19T09:05:50.448Z,5.28
2023-01-19T09:08:17.531Z,5.38
2023-01-19T09:10:49.445Z,12.40
2023-01-19T09:13:17.167Z,16.85
2023-01-19T09:15:44.421Z,17.88
2023-01-19T09:18:13.824Z,15.43
2023-01-19T09:20:42.721Z,12.85
2023-01-19T09:23:10.807Z,11.93
2023-01-19T09:25:42.057Z,10.10
2023-01-19T09:28:10.202Z,8.82
2023-01-19T09:30:40.940Z,7.88
2023-01-19T09:33:11.194Z,7.40
2023-01-19T09:35:39.064Z,7.80
2023-01-19T09:38:07.506Z,6.90
2023-01-19T09:40:36.391Z,5.85
2023-01-19T09:43:40.007Z,6.32
2023-01-19T09:46:16.859Z,5.80
2023-01-19T09:48:50.955Z,6.55
2023-01-19T09:51:24.008Z,6.53
2023-01-19T09:54:03.691Z,5.55
2023-01-19T09:58:58.539Z,5.22
2023-01-19T10:01:36.503Z,5.00
2023-01-19T10:04:18.493Z,4.75
2023-01-19T10:06:47.247Z,4.40
2023-01-19T10:09:50.755Z,4.60
2023-01-19T10:12:35.560Z,4.20
2023-01-19T10:15:18.308Z,4.43
2023-01-19T10:17:53.259Z,4.25
2023-01-19T10:22:56.241Z,3.60
2023-01-19T10:25:25.854Z,3.92
2023-01-19T10:30:23.395Z,3.47
2023-01-19T10:32:50.445Z,3.97
2023-01-19T10:35:25.479Z,3.75
2023-01-19T10:38:02.693Z,4.10
2023-01-19T10:40:37.272Z,4.00
2023-01-19T10:43:41.613Z,4.05
2023-01-19T10:46:37.505Z,4.20
2023-01-19T10:49:05.009Z,3.97
2023-01-19T10:51:31.868Z,3.42
2023-01-19T10:54:01.184Z,3.72
2023-01-19T10:56:31.639Z,3.30
2023-01-19T10:59:03.804Z,3.28
2023-01-19T11:01:31.588Z,3.17
2023-01-19T11:04:05.755Z,3.30
2023-01-19T11:06:35.112Z,3.00
2023-01-19T11:09:19.317Z,2.80
2023-01-19T11:11:51.678Z,3.33
2023-01-19T11:14:23.660Z,3.30
2023-01-19T11:16:55.789Z,2.95
2023-01-19T11:19:29.467Z,3.10
2023-01-19T11:22:32.925Z,3.00
2023-01-19T11:25:01.936Z,2.85
2023-01-19T11:27:28.729Z,3.30
2023-01-19T11:30:09.810Z,2.75
2023-01-19T11:32:37.125Z,3.45
2023-01-19T11:35:32.975Z,3.53
2023-01-19T11:38:12.047Z,3.90
2023-01-19T11:40:39.528Z,9.27
2023-01-19T11:43:06.238Z,12.38
2023-01-19T11:45:33.936Z,11.23
2023-01-19T11:48:04.759Z,10.23
2023-01-19T11:50:41.233Z,8.60
2023-01-19T11:53:24.196Z,7.25
2023-01-19T11:56:07.478Z,6.30
2023-01-19T11:58:46.810Z,5.88
2023-01-19T12:01:20.859Z,5.35
2023-01-19T12:03:57.835Z,5.22
2023-01-19T12:06:31.073Z,4.65
2023-01-19T12:09:05.339Z,4.40
2023-01-19T12:11:39.046Z,5.88
2023-01-19T12:14:11.620Z,13.23
2023-01-19T12:16:39.276Z,17.73
2023-01-19T12:19:13.744Z,16.65
2023-01-19T12:21:40.730Z,14.80
2023-01-19T12:24:20.896Z,12.18
2023-01-19T12:26:57.306Z,10.70
2023-01-19T12:29:28.095Z,8.82
2023-01-19T12:32:13.280Z,8.27
2023-01-19T12:34:40.040Z,7.63
2023-01-19T12:37:30.900Z,7.10
2023-01-19T12:40:00.707Z,6.32
2023-01-19T12:45:09.151Z,5.70
2023-01-19T12:47:36.737Z,5.93
2023-01-19T12:50:13.979Z,4.90
2023-01-19T12:52:49.380Z,5.75
2023-01-19T12:55:21.548Z,5.25
2023-01-19T12:57:56.385Z,4.78
2023-01-19T13:00:23.091Z,4.50
2023-01-19T13:02:56.940Z,4.68
2023-01-19T13:05:39.254Z,8.00
2023-01-19T13:08:06.269Z,16.63
2023-01-19T13:11:09.491Z,16.85
2023-01-19T13:13:39.987Z,14.75
2023-01-19T13:16:19.268Z,12.38
2023-01-19T13:18:58.187Z,11.25
2023-01-19T13:21:44.640Z,9.90
2023-01-19T13:24:16.963Z,9.82
2023-01-19T13:26:55.461Z,8.75
2023-01-19T13:29:39.727Z,8.20
2023-01-19T13:32:18.742Z,7.45
2023-01-19T13:34:54.651Z,6.85
2023-01-19T13:37:47.939Z,6.50
2023-01-19T13:40:19.592Z,5.88
2023-01-19T13:42:46.913Z,5.82
2023-01-19T13:45:28.872Z,5.65
2023-01-19T13:50:32.638Z,5.40
2023-01-19T13:53:00.054Z,5.13
2023-01-19T13:55:29.033Z,4.82
2023-01-19T13:57:56.541Z,4.60
2023-01-19T14:00:29.401Z,4.65
2023-01-19T14:03:15.089Z,4.30
2023-01-19T14:05:43.721Z,4.35
2023-01-19T14:08:13.510Z,4.47
2023-01-19T14:10:46.265Z,4.43
2023-01-19T14:13:17.560Z,4.30
2023-01-19T14:15:45.531Z,4.22
2023-01-19T14:18:18.691Z,4.05
2023-01-19T14:20:55.972Z,4.05
2023-01-19T14:23:40.652Z,4.15
2023-01-19T14:26:49.132Z,4.32
2023-01-19T14:29:32.908Z,4.88
2023-01-19T14:32:05.473Z,3.88
2023-01-19T14:35:04.010Z,4.15
2023-01-19T14:37:32.889Z,4.03
2023-01-19T14:40:13.668Z,4.07
2023-01-19T14:42:57.433Z,4.32
2023-01-19T14:45:26.638Z,3.90
2023-01-19T14:48:01.328Z,4.43
2023-01-19T14:50:37.207Z,3.53
2023-01-19T14:53:06.957Z,3.88
2023-01-19T14:55:38.276Z,9.23
2023-01-19T14:58:13.104Z,16.85
2023-01-19T15:00:41.094Z,19.10
2023-01-19T15:03:09.859Z,16.83
2023-01-19T15:05:41.464Z,15.87
2023-01-19T15:08:12.593Z,13.45
2023-01-19T15:10:39.405Z,12.63
2023-01-19T15:13:06.155Z,12.38
2023-01-19T15:15:34.293Z,10.50
2023-01-19T15:18:02.534Z,9.02
2023-01-19T15:20:29.464Z,9.07
2023-01-19T15:22:56.233Z,8.57
2023-01-19T15:25:27.119Z,8.02
2023-01-19T15:27:57.911Z,7.78
2023-01-19T15:30:31.081Z,7.30
2023-01-19T15:32:58.891Z,6.88
2023-01-19T15:35:28.934Z,6.50
2023-01-19T15:37:55.734Z,6.50
2023-01-19T15:40:23.262Z,6.80
2023-01-19T15:42:50.768Z,6.07
2023-01-19T15:45:28.025Z,6.40
2023-01-19T15:47:54.807Z,5.72
2023-01-19T15:50:21.567Z,6.20
2023-01-19T15:52:48.279Z,5.85
2023-01-19T15:55:15.947Z,5.70
2023-01-19T15:57:42.718Z,5.63
2023-01-19T16:00:10.262Z,5.90
2023-01-19T16:02:37.724Z,5.85
2023-01-19T16:05:04.911Z,4.93
2023-01-19T16:07:33.393Z,5.57
2023-01-19T16:10:00.640Z,5.28
2023-01-19T16:12:28.909Z,5.20
2023-01-19T16:14:55.740Z,5.00
2023-01-19T16:17:22.589Z,5.00
2023-01-19T16:19:49.364Z,4.85
2023-01-19T16:22:16.171Z,5.07
2023-01-19T16:24:42.937Z,4.63
2023-01-19T16:27:09.757Z,4.60
2023-01-19T16:29:36.566Z,4.85
2023-01-19T16:32:03.415Z,4.70
2023-01-19T16:34:30.230Z,4.50
2023-01-19T16:36:57.127Z,4.50
2023-01-19T16:39:23.952Z,4.47
2023-01-19T16:41:50.765Z,34.65
2023-01-19T16:44:17.860Z,52.90
2023-01-19T16:46:46.169Z,54.67
2023-01-19T16:49:18.169Z,43.28
2023-01-19T16:51:45.700Z,41.08
2023-01-19T16:54:18.070Z,34.08
2023-01-19T16:56:45.205Z,32.22
2023-01-19T16:59:13.554Z,29.27
2023-01-19T17:01:41.187Z,28.05
2023-01-19T17:04:08.141Z,24.73
2023-01-19T17:06:35.444Z,23.98
2023-01-19T17:09:02.309Z,23.05
2023-01-19T17:11:31.585Z,20.05
2023-01-19T17:14:08.214Z,19.50
2023-01-19T17:16:35.548Z,18.23
2023-01-19T17:19:04.083Z,16.27
2023-01-19T17:21:31.025Z,15.35
2023-01-19T17:23:58.178Z,14.65
2023-01-19T17:26:28.171Z,14.88
2023-01-19T17:28:59.637Z,13.68
2023-01-19T17:31:26.693Z,13.00
2023-01-19T17:33:53.488Z,13.18
2023-01-19T17:36:22.761Z,12.38
2023-01-19T17:38:50.161Z,12.43
2023-01-19T17:41:21.984Z,11.15
2023-01-19T17:43:52.125Z,10.80
2023-01-19T17:46:20.658Z,10.95
2023-01-19T17:48:54.212Z,11.68
2023-01-19T17:51:22.900Z,10.70
2023-01-19T17:53:50.355Z,9.83
2023-01-19T17:56:21.853Z,10.02
2023-01-19T17:58:48.867Z,9.88
2023-01-19T18:01:27.622Z,10.35
2023-01-19T18:03:54.959Z,29.42
2023-01-19T18:06:21.996Z,46.97
2023-01-19T18:08:49.795Z,49.00
2023-01-19T18:11:18.866Z,41.97
2023-01-19T18:13:48.161Z,36.63
2023-01-19T18:16:20.931Z,34.67
2023-01-19T18:18:49.619Z,32.83
2023-01-19T18:21:16.805Z,31.27
2023-01-19T18:23:45.073Z,28.27
2023-01-19T18:26:14.552Z,27.70
2023-01-19T18:28:41.354Z,24.95
2023-01-19T18:31:12.993Z,25.85
2023-01-19T18:33:40.350Z,24.33
2023-01-19T18:36:08.307Z,23.35
2023-01-19T18:38:35.965Z,23.10
2023-01-19T18:41:09.035Z,20.90
2023-01-19T18:43:35.906Z,20.40
2023-01-19T18:46:02.770Z,25.48
2023-01-19T18:48:29.810Z,51.17
2023-01-19T18:50:57.163Z,46.13
2023-01-19T18:53:24.252Z,42.05
2023-01-19T18:55:56.270Z,41.25
2023-01-19T18:58:24.162Z,38.03
2023-01-19T19:00:51.144Z,34.92
2023-01-19T19:03:17.912Z,34.80
2023-01-19T19:05:44.720Z,30.08
2023-01-19T19:08:12.051Z,29.38
2023-01-19T19:10:41.000Z,28.80
2023-01-19T19:13:08.443Z,27.00
2023-01-19T19:15:35.218Z,25.88
2023-01-19T19:18:02.046Z,24.58
2023-01-19T19:20:28.939Z,23.17
2023-01-19T19:22:56.135Z,24.38
2023-01-19T19:25:23.295Z,21.92
2023-01-19T19:27:53.146Z,21.50
2023-01-19T19:30:20.739Z,21.20
2023-01-19T19:32:56.104Z,19.45
2023-01-19T19:35:26.203Z,18.88
2023-01-19T19:37:57.392Z,25.42
2023-01-19T19:40:26.013Z,26.33
2023-01-19T19:42:53.146Z,25.90
2023-01-19T19:45:20.095Z,23.40
2023-01-19T19:47:46.911Z,24.00
2023-01-19T19:50:14.311Z,21.15
2023-01-19T19:52:42.516Z,21.75
2023-01-19T19:55:10.340Z,18.73
2023-01-19T19:57:37.333Z,17.73
2023-01-19T20:00:05.450Z,17.08
2023-01-19T20:02:32.748Z,16.27
2023-01-19T20:04:59.590Z,15.60
2023-01-19T20:07:26.501Z,15.20
2023-01-19T20:09:54.981Z,15.88
2023-01-19T20:12:21.880Z,14.32
2023-01-19T20:14:48.814Z,14.27
2023-01-19T20:17:15.791Z,14.05
2023-01-19T20:19:45.575Z,34.58
2023-01-19T20:22:12.452Z,39.67
2023-01-19T20:24:39.545Z,35.83
2023-01-19T20:27:06.384Z,34.88
2023-01-19T20:29:33.329Z,29.27
2023-01-19T20:32:00.322Z,28.83
2023-01-19T20:34:32.937Z,26.08
2023-01-19T20:37:01.591Z,24.50
2023-01-19T20:39:30.099Z,23.20
2023-01-19T20:41:56.970Z,23.02
2023-01-19T20:44:25.340Z,20.08
2023-01-19T20:46:52.940Z,18.58
2023-01-19T20:49:19.890Z,18.27
2023-01-19T20:51:48.153Z,18.27
2023-01-19T20:54:17.135Z,17.08
2023-01-19T20:56:44.083Z,16.92
2023-01-19T20:59:11.588Z,16.10
2023-01-19T21:01:39.175Z,15.80
2023-01-19T21:04:06.200Z,28.80
2023-01-19T21:06:33.205Z,92.45
2023-01-19T21:09:00.149Z,82.50
2023-01-19T21:11:27.613Z,78.13
2023-01-19T21:13:57.592Z,70.47
2023-01-19T21:16:29.928Z,64.03
2023-01-19T21:18:56.842Z,58.10
2023-01-19T21:21:30.778Z,54.67
2023-01-19T21:23:59.926Z,50.38
2023-01-19T21:26:29.594Z,48.35
2023-01-19T21:31:27.254Z,42.25
2023-01-19T21:33:54.700Z,38.35
2023-01-19T21:36:22.532Z,38.25
2023-01-19T21:38:51.349Z,35.95
2023-01-19T21:41:18.578Z,33.72
2023-01-19T21:43:46.143Z,33.20
2023-01-19T21:46:17.668Z,32.03
2023-01-19T21:48:45.751Z,30.48
2023-01-19T21:51:13.308Z,29.02
2023-01-19T21:53:40.583Z,28.80
2023-01-19T21:56:09.551Z,27.00
2023-01-19T21:58:36.724Z,27.08
2023-01-19T22:01:13.642Z,25.25
2023-01-19T22:03:41.656Z,25.60
2023-01-19T22:06:11.091Z,24.98
2023-01-19T22:08:38.591Z,23.85
2023-01-19T22:11:10.764Z,23.65
2023-01-19T22:13:40.970Z,22.40
2023-01-19T22:16:10.760Z,25.98
2023-01-19T22:18:42.715Z,53.30
2023-01-19T22:21:14.630Z,55.58
2023-01-19T22:23:42.142Z,53.10
2023-01-19T22:26:10.862Z,49.70
2023-01-19T22:28:37.781Z,44.50
2023-01-19T22:31:10.003Z,41.00
2023-01-19T22:33:36.983Z,39.78
2023-01-19T22:36:24.960Z,35.00
2023-01-19T22:39:02.563Z,35.15
2023-01-19T22:41:29.387Z,31.83
2023-01-19T22:43:58.455Z,30.75
2023-01-19T22:46:27.613Z,30.05
2023-01-19T22:48:54.977Z,29.60
2023-01-19T22:51:23.045Z,27.60
2023-01-19T22:53:49.862Z,26.67
2023-01-19T22:56:21.607Z,25.88
2023-01-19T22:58:48.629Z,25.90
2023-01-19T23:01:24.317Z,55.03
2023-01-19T23:03:51.976Z,119.45
2023-01-19T23:06:21.023Z,112.28
2023-01-19T23:08:47.915Z,108.63
2023-01-19T23:11:17.544Z,94.82
2023-01-19T23:13:45.057Z,87.18
2023-01-19T23:16:12.491Z,81.38
2023-01-19T23:18:40.083Z,76.25
2023-01-19T23:21:12.916Z,71.30
2023-01-19T23:23:40.591Z,66.38
2023-01-19T23:26:10.417Z,61.35
2023-01-19T23:28:37.682Z,56.97
2023-01-19T23:31:28.366Z,56.13
2023-01-19T23:33:57.339Z,54.25
2023-01-19T23:36:26.632Z,50.63
2023-01-19T23:38:58.628Z,48.53
2023-01-19T23:41:26.341Z,47.78
2023-01-19T23:43:53.127Z,45.88
2023-01-19T23:46:20.383Z,43.55
2023-01-19T23:48:47.750Z,42.83
2023-01-19T23:51:15.866Z,39.45
2023-01-19T23:53:42.949Z,45.63
2023-01-19T23:56:14.747Z,56.97
2023-01-19T23:58:41.890Z,65.28
